Date,TemperatureHighF,TemperatureAvgF,TemperatureLowF,DewpointHighF,DewpointAvgF,DewpointLowF,HumidityHigh,HumidityAvg,HumidityLow,PressureMaxIn,PressureMinIn,WindSpeedMaxMPH,WindSpeedAvgMPH,GustSpeedMaxMPH,PrecipitationSumIn
2013-1-1,19.8,2.6,-18.7,17.9,-0.3,-22.3,92,87,83,30.38,30.07,1,0,5,0.00
2013-1-2,21.7,19.5,15.5,19.7,17.0,12.6,95,90,85,30.18,29.98,3,0,7,0.00
2013-1-3,17.0,12.5,4.8,14.1,9.0,1.9,91,86,72,30.32,30.04,3,1,11,0.00
2013-1-4,33.3,19.2,9.6,21.7,14.7,7.5,94,83,60,30.18,30.01,2,0,10,0.00
2013-1-5,22.0,12.5,-1.6,18.9,9.9,-4.5,95,89,83,30.14,29.95,2,0,5,0.00
2013-1-6,19.4,9.5,1.3,16.6,5.8,-1.2,95,85,68,30.29,30.14,3,0,7,0.00
2013-1-10,45.7,35.9,28.4,31.5,26.3,19.3,96,71,37,30.18,29.71,6,2,11,0.20
2013-1-11,35.4,33.8,32.5,34.8,33.2,31.4,98,97,96,29.71,29.34,2,0,5,0.45
2013-1-12,32.9,12.3,-0.3,32.4,8.2,-4.3,98,83,73,30.17,29.33,5,2,12,0.00
2013-1-13,10.6,1.9,-5.5,3.6,-2.5,-8.6,88,82,71,30.32,30.13,2,1,6,0.00
2013-1-14,11.7,5.3,-2.0,4.3,0.5,-4.7,90,80,68,30.47,30.32,4,1,9,0.00
2013-1-15,25.0,14.4,1.1,16.1,7.6,-1.4,92,75,49,30.34,29.72,5,1,10,0.00
2013-1-16,29.7,23.6,15.9,27.7,14.9,-6.5,95,71,35,30.09,29.65,5,3,12,0.00
2013-1-17,15.2,7.6,0.1,4.9,0.4,-8.6,87,72,60,30.47,30.34,4,1,11,0.00
2013-1-18,29.7,18.6,9.6,22.8,15.2,4.5,94,86,74,30.34,29.79,2,0,5,0.00
2013-1-19,31.3,13.8,-4.4,28.0,9.2,-9.0,98,82,61,30.34,29.72,9,3,20,0.00
2013-1-20,4.4,-5.4,-16.4,-2.9,-10.9,-20.1,85,77,67,30.49,30.34,5,2,11,0.00
2013-1-21,-6.9,-13.6,-20.0,-15.9,-19.8,-24.0,83,73,61,30.47,30.39,5,1,10,0.00
2013-1-22,0.9,-10.5,-25.0,-5.4,-16.3,-29.4,84,75,58,30.52,30.36,3,0,6,0.00
2013-1-23,6.9,0.0,-13.3,2.8,-7.7,-19.6,88,70,50,30.75,30.26,7,2,22,0.00
2013-1-24,3.5,-0.3,-6.2,-3.8,-9.3,-15.0,71,65,60,30.73,30.32,5,1,10,0.00
2013-1-25,13.1,6.8,-7.8,8.9,0.0,-11.3,85,74,62,30.44,29.99,7,2,15,0.00
2013-1-26,15.1,4.5,-11.6,7.9,-1.4,-15.3,89,77,63,30.44,30.21,2,0,7,0.00
2013-1-27,32.0,22.2,8.6,27.9,17.4,6.3,95,82,65,30.21,29.88,2,0,5,0.00
2013-1-28,33.9,30.7,28.0,32.4,29.7,26.9,98,96,94,29.91,29.71,1,0,3,0.07
2013-1-29,31.8,28.4,21.9,31.3,26.1,18.8,98,91,83,29.87,29.60,4,1,12,0.00
2013-1-30,21.8,12.4,6.9,18.8,7.8,2.3,89,81,75,29.85,29.78,5,3,12,0.00
2013-1-31,2.4,-3.9,-15.1,-6.4,-10.1,-19.7,81,74,65,30.39,29.95,6,3,15,0.00
2013-2-1,0.4,-10.4,-25.2,-6.1,-16.1,-29.3,84,76,56,30.41,30.23,2,0,8,0.00
2013-2-2,11.0,1.5,-13.0,2.5,-3.6,-16.2,88,79,59,30.31,30.10,2,0,6,0.00
2013-2-3,14.0,6.3,-0.2,2.5,0.3,-3.4,87,76,59,30.17,30.08,4,1,8,0.00
2013-2-4,15.6,6.3,-9.1,9.5,-0.7,-12.4,88,73,54,30.18,29.76,3,1,8,0.00
2013-2-5,24.7,16.3,6.0,22.2,7.7,-99.9,94,76,57,30.13,29.70,5,-26,12,0.00
2013-2-6,21.0,16.6,9.2,17.9,13.1,5.7,94,86,79,30.16,30.01,2,1,7,0.00
2013-2-7,26.3,19.1,3.0,21.3,16.3,0.5,95,89,75,30.39,30.16,3,1,8,0.00
2013-2-8,27.5,10.5,-5.4,18.4,5.6,-8.2,92,81,64,30.46,30.31,3,0,9,0.00
2013-2-9,28.3,26.2,24.3,27.3,21.9,-99.9,97,91,90,30.12,29.96,3,-26,9,0.00
2013-2-10,28.5,25.9,24.5,27.8,23.3,-99.9,97,95,94,29.96,29.47,11,-9,13,0.00
2013-2-11,25.8,19.8,7.2,24.8,17.9,5.5,96,92,80,30.06,29.50,6,3,13,0.00
2013-2-12,33.8,21.8,5.1,22.9,15.2,-99.9,95,80,62,30.06,29.82,4,-15,8,0.00
2013-2-13,39.2,28.1,16.8,28.9,23.2,15.2,96,83,65,29.83,29.64,2,0,8,0.06
2013-2-14,24.9,18.2,8.7,19.4,7.5,0.2,95,65,40,30.26,29.83,6,2,12,0.00
2013-2-15,19.4,8.6,-2.7,3.8,1.1,-4.9,91,72,48,30.41,30.26,7,1,15,0.00
2013-2-16,21.8,10.0,4.6,9.0,4.2,0.1,89,78,56,30.33,30.16,2,0,6,0.00
2013-2-17,30.0,19.9,5.4,21.7,14.4,2.1,87,79,66,30.16,29.65,5,2,15,0.00
2013-2-18,27.8,18.4,4.5,25.1,13.5,-1.1,90,81,72,29.97,29.55,7,2,14,0.00
2013-2-19,7.2,2.1,-5.0,-0.8,-6.1,-9.7,81,69,53,30.52,29.97,7,4,16,0.00
2013-2-20,19.0,2.7,-12.9,2.6,-5.7,-16.5,87,69,45,30.61,30.52,3,0,5,0.00
2013-2-21,21.6,5.3,-8.5,17.4,-0.7,-13.8,92,77,54,30.61,30.27,4,1,7,0.00
2013-2-22,26.2,22.2,19.2,22.0,20.0,17.4,94,91,82,30.27,29.93,3,1,7,0.00
2013-2-23,33.2,23.1,8.9,24.7,19.7,6.8,97,87,70,30.01,29.90,3,0,5,0.01
2013-2-24,36.0,17.3,2.1,24.2,12.6,-0.4,94,83,59,30.16,30.01,3,0,6,0.04
2013-2-25,35.7,17.9,2.8,24.9,13.7,0.5,94,84,61,30.18,30.12,3,0,6,0.01
2013-2-26,38.4,22.3,8.7,25.3,16.5,6.5,94,80,57,30.17,30.05,3,0,5,0.01
2013-2-27,43.5,30.9,17.8,23.9,20.2,14.6,89,66,43,30.15,30.00,6,2,13,0.01
2013-2-28,29.4,25.6,19.6,22.3,18.6,14.5,81,75,61,30.34,30.15,4,2,9,0.00
2013-3-1,28.9,18.2,4.3,15.2,10.3,1.3,93,73,48,30.47,30.34,3,1,10,0.00
2013-3-2,32.7,15.0,-8.4,13.1,4.6,-11.6,91,67,38,30.45,30.22,2,0,6,0.00
2013-3-3,35.2,26.0,14.6,12.9,9.2,4.2,78,51,30,30.23,30.04,4,1,10,0.00
2013-3-4,26.8,23.7,20.5,21.8,17.3,6.7,94,77,42,30.10,30.00,4,2,11,0.00
2013-3-5,29.4,24.5,20.9,25.4,21.7,17.9,95,89,77,30.41,30.07,5,1,10,0.00
2013-3-6,29.4,19.4,4.6,17.6,14.1,1.3,93,80,59,30.50,30.40,3,1,7,0.01
2013-3-7,34.9,16.3,-5.9,18.9,8.7,-9.1,92,74,48,30.48,30.35,3,1,7,0.03
2013-3-8,39.4,27.1,18.1,27.4,21.2,13.4,88,79,61,30.38,30.13,3,0,7,0.10
2013-3-9,34.6,32.3,28.6,33.6,31.0,24.8,97,95,85,30.13,29.76,0,0,3,0.06
2013-3-10,31.7,26.3,21.3,30.3,23.8,18.8,95,90,84,30.13,29.90,0,0,0,0.00
2013-3-11,29.7,21.3,14.3,22.4,17.5,12.6,94,85,72,30.06,29.84,0,0,0,0.00
2013-3-12,28.1,20.3,12.8,18.3,12.7,8.4,94,74,47,30.30,29.90,7,1,14,0.00
2013-3-13,34.7,19.8,2.3,19.4,12.2,-0.1,93,74,46,30.45,30.27,2,0,6,0.02
2013-3-14,43.7,30.0,21.5,30.6,24.4,16.5,94,81,59,30.27,30.06,3,0,7,0.38
2013-3-15,31.0,26.5,19.1,27.2,22.0,16.8,94,83,63,30.07,29.95,4,2,9,0.00
2013-3-16,22.9,13.1,1.5,16.2,5.3,-4.1,90,72,51,30.37,30.05,6,2,13,0.00
2013-3-17,23.6,8.3,-15.0,17.1,-1.1,-18.7,90,67,45,30.38,29.89,4,2,12,0.00
2013-3-18,27.5,19.7,8.7,26.3,15.2,3.5,95,83,67,29.89,29.56,8,4,19,0.00
2013-3-19,22.7,11.1,2.7,4.7,0.2,-5.0,83,63,40,30.29,29.88,7,4,16,0.00
2013-3-20,24.0,11.8,1.7,5.8,-0.3,-5.3,74,59,43,30.32,30.20,7,3,18,0.00
2013-3-21,30.6,11.1,-10.2,10.7,1.7,-13.5,88,68,41,30.25,30.14,4,1,9,0.00
2013-3-22,38.6,17.2,-4.5,13.3,6.1,-7.6,92,66,33,30.20,30.13,3,0,5,0.05
2013-3-23,40.9,26.8,8.3,22.6,15.4,5.5,92,64,38,30.23,30.15,3,0,7,0.06
2013-3-24,32.9,29.3,25.4,25.3,22.4,19.2,93,75,65,30.18,30.11,5,1,10,0.01
2013-3-25,36.4,28.9,20.7,20.1,17.4,14.4,77,63,46,30.32,30.17,7,2,12,0.00
2013-3-26,45.1,28.9,12.3,21.5,16.2,10.4,92,63,31,30.37,30.31,4,0,6,0.00
2013-3-27,45.6,31.7,16.5,20.8,17.4,13.1,89,59,32,30.39,30.34,3,0,5,0.00
2013-3-28,47.5,30.2,11.9,23.3,17.9,10.0,94,65,33,30.39,30.31,3,1,7,0.00
2013-3-29,53.8,39.6,24.4,36.8,30.1,18.8,89,70,47,30.33,30.03,3,1,7,0.00
2013-3-30,55.7,42.2,32.6,40.6,35.4,29.2,97,79,45,30.03,29.86,5,1,12,0.12
2013-3-31,34.1,29.8,18.2,30.6,18.4,8.9,93,65,36,30.18,29.79,8,4,20,0.00
2013-4-1,35.0,22.7,10.2,13.3,10.1,6.8,87,61,33,30.33,30.18,5,2,11,0.00
2013-4-2,37.6,24.1,11.5,15.3,11.9,9.4,91,63,36,30.42,30.32,4,1,9,0.00
2013-4-3,43.9,29.9,8.8,34.3,20.4,6.7,93,70,39,30.43,29.96,5,2,11,0.00
2013-4-4,43.2,36.7,26.9,34.2,25.1,17.6,86,65,36,30.25,29.99,6,2,16,0.00
2013-4-5,40.2,28.7,14.0,27.9,20.1,11.9,94,72,42,30.31,29.95,3,1,8,0.00
2013-4-6,38.4,35.0,32.2,34.4,31.5,27.3,93,87,82,29.95,29.65,4,1,9,0.04
2013-4-7,34.5,33.5,32.8,31.5,29.6,28.4,89,85,83,29.92,29.81,3,1,7,0.00
2013-4-8,41.5,36.6,33.7,36.5,33.5,27.2,97,89,76,30.18,29.80,5,2,9,0.07
2013-4-9,35.9,29.9,20.9,26.4,19.9,14.5,79,67,49,30.29,30.15,7,4,13,0.00
2013-4-10,42.4,35.5,29.4,22.1,18.9,16.0,65,51,37,30.32,30.05,6,3,13,0.00
2013-4-11,34.6,30.0,27.1,29.6,24.7,16.1,96,82,49,30.07,29.84,7,4,16,0.01
2013-4-12,34.3,29.3,26.2,27.8,25.5,23.6,96,86,65,29.91,29.80,4,2,10,0.09
2013-4-13,39.7,29.5,20.2,25.6,21.4,16.9,95,74,47,30.02,29.88,4,1,8,0.14
2013-4-14,36.9,28.5,19.3,31.0,24.3,17.1,97,85,57,30.02,29.52,7,3,22,0.00
2013-4-15,39.7,34.9,31.8,33.1,31.4,30.6,98,87,76,29.96,29.48,4,2,11,0.25
2013-4-16,42.1,35.8,31.1,30.9,27.9,25.6,90,74,53,30.39,29.96,5,1,12,0.01
2013-4-17,39.7,35.1,29.9,30.4,27.7,24.9,84,74,64,30.41,30.15,4,1,10,0.00
2013-4-18,32.4,30.5,29.3,31.4,29.6,28.6,97,96,96,29.79,29.70,5,3,11,0.01
2013-4-19,38.2,30.7,19.9,28.6,20.1,6.5,97,69,33,30.06,29.65,8,4,20,0.11
2013-4-20,44.6,28.3,9.8,17.8,12.6,8.1,95,57,25,30.34,30.06,4,1,7,0.02
2013-4-21,42.3,35.3,26.6,37.5,29.7,15.2,95,80,60,30.34,30.04,6,1,15,0.25
2013-4-22,36.8,32.9,24.9,31.4,24.9,21.3,96,73,54,30.34,30.18,5,2,12,0.00
2013-4-23,42.7,32.7,23.7,23.8,19.0,11.4,80,59,34,30.27,30.09,5,2,11,0.00
2013-4-24,43.2,32.1,19.5,32.7,25.9,17.3,93,79,58,30.09,29.93,3,1,9,0.03
2013-4-25,46.9,37.3,24.3,31.0,27.0,22.6,95,69,39,30.20,30.03,4,1,10,0.00
2013-4-26,68.3,49.1,34.3,39.1,32.9,28.6,86,58,26,30.15,29.96,2,0,6,0.00
2013-4-27,71.2,52.9,29.9,38.7,33.6,26.9,90,54,26,30.15,29.82,3,1,9,0.00
2013-4-28,68.7,55.4,48.2,51.6,44.5,34.6,92,68,46,29.82,29.68,3,1,11,0.04
2013-4-29,69.2,50.3,28.6,40.2,31.6,24.6,97,55,21,29.88,29.53,3,1,6,0.00
2013-4-30,65.5,54.0,43.5,53.7,39.7,26.5,98,62,24,29.99,29.32,8,3,24,0.02
2013-5-1,44.2,35.7,32.6,33.5,27.2,24.3,74,71,66,30.31,29.98,4,2,9,0.00
2013-5-2,39.8,33.9,28.1,24.9,23.3,22.0,81,65,53,30.67,30.56,7,4,14,0.00
2013-5-3,43.7,35.7,26.4,32.3,24.4,21.0,87,65,44,30.55,30.27,5,2,12,0.00
2013-5-4,38.4,35.6,33.1,35.7,33.7,31.6,97,93,87,30.28,30.24,4,2,9,0.09
2013-5-5,59.2,45.4,35.6,45.5,39.8,35.1,98,82,60,30.28,30.14,4,1,9,0.00
2013-5-6,74.0,53.0,32.7,49.9,43.0,31.9,98,73,40,30.17,30.03,5,1,7,0.00
2013-5-7,77.2,59.1,39.5,51.5,44.3,38.7,98,64,30,30.07,29.93,4,1,8,0.00
2013-5-8,66.8,55.4,44.4,56.1,48.4,40.3,94,78,52,30.05,29.95,1,0,4,0.02
2013-5-9,54.7,49.1,37.8,51.0,43.7,35.8,97,82,69,30.21,30.03,5,2,11,0.00
2013-5-10,66.0,47.1,26.5,40.3,30.5,24.9,97,59,24,30.23,29.90,7,2,15,0.00
2013-5-11,47.7,40.9,30.6,38.0,26.3,20.3,87,57,36,30.24,30.03,9,4,19,0.01
2013-5-12,57.4,40.6,23.4,25.6,20.5,13.8,90,51,19,30.29,30.13,5,2,15,0.00
2013-5-13,72.4,50.3,32.1,43.5,33.6,21.8,77,55,32,30.13,29.64,5,1,14,0.03
2013-5-14,92.3,63.3,40.8,51.2,43.9,32.3,96,58,14,29.75,29.45,9,3,20,0.02
2013-5-15,80.5,66.3,46.7,46.0,40.4,32.9,87,44,19,29.87,29.71,7,2,15,0.00
2013-5-16,76.2,62.7,43.0,43.2,38.4,34.4,88,46,23,29.96,29.83,4,1,8,0.00
2013-5-17,68.0,58.6,50.1,52.8,43.1,32.2,80,57,36,30.00,29.91,4,2,8,0.00
2013-5-18,70.6,59.4,49.7,65.4,57.3,48.3,99,93,82,29.96,29.79,4,0,8,0.59
2013-5-19,77.0,60.7,50.9,66.6,58.0,50.1,99,92,65,29.81,29.59,4,1,10,0.64
2013-5-20,58.4,44.7,47.0,57.7,31.0,-99.9,99,85,94,29.63,29.50,4,-131,8,0.97
2013-5-21,54.1,48.8,46.3,49.6,46.8,44.3,98,93,83,29.82,29.60,5,3,12,0.17
2013-5-22,61.4,49.3,43.8,52.5,46.3,42.9,98,90,69,30.09,29.80,4,2,11,0.27
2013-5-23,65.7,49.9,41.6,46.2,31.7,-99.9,99,60,22,30.34,30.09,4,-30,8,0.00
2013-5-24,65.9,53.1,36.2,49.3,36.8,30.6,95,59,28,30.38,30.22,4,1,9,0.06
2013-5-25,69.3,58.1,50.2,50.9,48.3,44.3,95,72,43,30.26,30.18,4,1,11,0.02
2013-5-26,68.0,57.1,48.0,46.4,41.9,35.5,80,59,32,30.23,30.05,4,1,12,0.00
2013-5-27,60.3,55.3,49.5,53.6,48.0,41.9,88,76,67,30.08,29.85,2,1,7,0.00
2013-5-28,65.9,59.0,53.7,56.6,53.8,51.2,93,83,68,29.85,29.70,2,0,4,0.00
2013-5-29,65.8,59.1,50.8,60.6,56.9,49.8,98,93,78,29.78,29.63,3,0,8,0.56
2013-5-30,75.0,65.6,59.1,67.6,62.0,58.2,99,89,63,29.64,29.46,4,1,17,0.47
2013-5-31,69.0,49.8,57.3,61.9,21.6,-99.9,98,59,56,29.53,29.42,5,-218,11,0.00
2013-6-1,59.2,53.9,48.8,56.6,50.1,43.7,94,87,70,30.02,29.53,6,2,13,0.01
2013-6-2,68.3,53.3,35.7,46.0,40.9,34.7,98,67,34,30.11,30.00,5,1,11,0.00
2013-6-3,63.9,47.4,38.2,44.6,40.5,37.3,97,80,42,30.08,30.03,1,0,6,0.00
2013-6-4,59.4,54.9,51.7,54.1,51.3,39.4,95,88,51,30.07,30.03,2,1,7,0.73
2013-6-5,54.6,52.2,49.2,53.5,50.9,47.0,98,95,92,30.07,30.00,3,1,9,0.49
2013-6-6,56.3,51.2,44.5,51.4,48.2,43.6,97,89,81,30.08,30.04,2,1,10,0.00
2013-6-7,66.2,52.3,38.0,53.5,47.0,37.5,99,84,57,30.09,29.94,3,0,7,0.00
2013-6-8,70.8,58.8,45.5,55.9,51.3,45.0,99,79,50,29.94,29.88,3,0,8,0.00
2013-6-9,57.9,55.7,54.4,54.8,53.9,52.6,98,94,86,29.91,29.83,2,0,8,0.52
2013-6-10,70.6,60.2,54.7,62.3,57.0,54.1,99,90,70,29.88,29.80,2,0,6,0.01
2013-6-11,78.9,65.8,54.5,62.2,53.7,41.6,99,71,28,29.90,29.81,3,0,8,0.00
2013-6-12,75.9,62.7,52.9,63.7,54.3,48.4,97,76,45,29.99,29.85,4,0,13,0.00
2013-6-13,77.8,64.4,51.0,56.9,52.8,48.8,94,68,44,30.12,29.99,2,0,8,0.00
2013-6-14,77.4,67.6,53.4,62.1,57.3,50.1,90,70,56,30.08,29.83,2,0,8,0.00
2013-6-15,78.8,67.9,56.7,64.1,56.3,46.9,97,69,34,29.89,29.80,2,0,8,0.00
2013-6-16,84.6,69.3,51.6,57.3,50.4,45.3,88,56,26,29.88,29.76,4,1,9,0.00
2013-6-17,74.5,63.8,51.8,63.8,56.0,48.7,97,77,57,30.07,29.84,2,0,7,0.01
2013-6-18,74.5,60.9,47.4,50.2,43.5,37.1,88,56,29,30.13,30.01,2,0,7,0.00
2013-6-19,85.0,68.6,49.0,64.1,57.1,47.9,99,70,40,30.04,29.90,2,0,7,0.00
2013-6-20,74.2,67.5,63.1,69.5,63.6,59.6,98,88,78,29.97,29.85,3,1,10,0.01
2013-6-21,78.0,69.1,61.0,68.9,63.8,60.0,98,84,66,30.03,29.65,6,1,14,0.84
2013-6-22,72.5,65.7,61.4,66.8,62.9,60.0,96,91,81,29.97,29.83,2,1,8,0.00
2013-6-23,78.3,68.6,60.8,68.1,63.0,58.3,99,84,59,29.84,29.50,5,1,14,0.49
2013-6-24,84.3,69.8,54.1,68.3,62.0,53.5,99,79,49,29.87,29.76,1,0,4,0.00
2013-6-25,87.4,74.7,64.5,71.8,67.0,63.7,99,79,54,29.79,29.65,2,0,6,0.00
2013-6-26,83.6,73.8,65.9,71.3,67.1,63.8,98,81,54,29.75,29.59,2,0,7,0.00
2013-6-27,82.7,72.8,63.2,65.7,61.8,56.5,96,71,46,29.78,29.74,4,1,12,0.00
2013-6-28,75.7,67.2,60.2,64.5,60.8,57.6,93,81,62,29.82,29.75,5,1,13,0.02
2013-6-29,75.8,66.7,54.5,62.9,57.8,50.7,97,76,44,30.02,29.80,4,1,13,0.10
2013-6-30,82.0,66.1,49.3,60.5,54.7,48.8,99,72,36,30.14,30.01,2,0,6,0.00
2013-7-1,83.0,68.3,53.4,63.8,57.2,51.6,99,72,34,30.21,30.14,2,0,6,0.00
2013-7-2,85.1,68.3,54.0,66.5,57.9,51.5,99,73,40,30.17,30.03,1,0,4,0.00
2013-7-3,86.1,69.8,53.7,64.9,58.9,53.1,99,73,37,30.05,29.90,1,0,4,0.00
2013-7-4,86.7,73.4,60.6,66.4,61.3,56.3,91,68,43,29.92,29.76,2,0,6,0.00
2013-7-5,86.5,75.7,65.9,71.6,64.4,59.4,95,69,53,29.78,29.70,2,0,6,0.00
2013-7-6,76.8,70.4,65.5,70.9,67.6,64.0,98,91,78,29.82,29.75,1,0,3,0.07
2013-7-7,87.8,74.6,65.8,74.3,67.8,-99.9,99,83,59,29.89,29.77,2,-12,5,0.00
2013-7-8,85.8,72.1,62.8,71.7,64.4,56.0,98,79,41,29.98,29.89,2,0,6,0.00
2013-7-9,72.1,67.5,65.1,70.7,65.8,63.5,98,94,86,29.93,29.72,1,0,3,0.18
2013-7-11,83.5,72.5,52.1,64.3,59.9,51.6,99,67,46,30.08,29.89,2,0,6,0.00
2013-7-12,87.0,77.3,66.9,70.9,65.1,59.6,79,67,55,29.91,29.75,4,1,15,0.01
2013-7-13,77.0,73.5,69.3,70.3,67.6,65.0,89,82,76,30.00,29.81,1,0,5,0.00
2013-7-14,70.4,66.9,64.6,66.7,64.6,61.1,98,93,80,30.20,29.99,1,0,5,2.82
2013-7-15,86.7,72.7,66.2,75.0,68.9,65.8,99,89,60,30.21,30.10,1,0,2,0.12
2013-7-16,90.3,77.6,66.4,74.5,69.9,65.5,99,80,53,30.13,30.09,3,0,7,0.00
2013-7-17,90.5,78.8,68.3,76.5,70.9,67.0,97,79,54,30.16,30.03,2,0,8,0.00
2013-7-18,90.8,80.9,72.9,75.8,72.4,70.0,93,76,57,30.03,29.63,3,1,11,0.00
2013-7-19,80.8,72.9,62.4,73.0,64.0,59.8,97,75,50,29.84,29.64,3,1,13,0.02
2013-7-20,74.2,65.0,58.4,62.0,56.1,49.9,96,74,52,29.98,29.83,2,0,6,0.00
2013-7-21,81.1,69.6,59.8,67.2,60.1,50.7,91,72,57,29.95,29.72,2,0,7,0.00
2013-7-22,77.2,69.9,56.9,69.9,62.2,53.8,96,78,58,29.87,29.62,4,1,12,0.01
2013-7-23,73.5,62.4,53.3,55.8,53.5,51.1,97,75,48,30.03,29.86,2,0,8,0.00
2013-7-24,79.3,65.4,52.6,61.8,56.3,51.5,97,75,45,30.06,29.91,1,0,7,0.05
2013-7-25,79.6,65.3,57.2,70.4,61.4,56.3,99,89,58,29.93,29.85,5,0,12,0.61
2013-7-26,63.2,56.2,47.2,56.2,52.0,44.6,99,87,69,30.14,29.89,5,2,14,0.01
2013-7-27,63.4,54.4,45.4,51.4,47.3,43.8,96,78,56,30.14,29.98,4,1,11,0.00
2013-7-28,71.4,58.3,45.9,55.5,50.4,43.9,97,77,52,30.06,30.01,3,1,10,0.00
2013-7-29,76.3,61.5,45.1,61.8,54.6,44.6,99,80,52,30.11,30.05,1,0,5,0.00
2013-7-30,76.5,66.6,60.2,66.3,61.4,57.7,97,84,67,30.08,30.00,1,0,7,0.00
2013-7-31,76.2,64.7,52.5,61.9,55.3,50.4,99,75,43,30.04,29.98,3,1,10,0.00
2013-8-1,52.4,51.0,50.4,50.4,49.9,49.1,97,96,93,30.00,29.99,0,0,0,0.00
2013-8-2,74.4,63.6,50.5,57.4,53.9,49.7,99,74,47,30.06,29.90,3,1,8,0.00
2013-8-3,72.9,60.0,47.0,58.7,51.0,46.5,99,76,43,30.24,30.06,3,1,8,0.00
2013-8-4,75.2,58.9,42.4,60.2,52.7,41.9,99,82,50,30.26,29.98,2,0,3,0.00
2013-8-5,78.3,66.0,53.9,66.4,59.8,53.1,97,82,61,29.99,29.79,3,0,9,0.00
2013-8-6,77.2,61.6,50.8,67.9,58.4,50.3,99,90,67,29.83,29.69,3,0,8,0.21
2013-8-7,73.3,61.2,50.0,59.1,53.8,49.5,99,80,48,30.01,29.82,3,0,6,0.00
2013-8-8,76.3,60.7,51.0,64.5,56.1,50.2,99,86,57,30.05,29.97,2,0,4,0.06
2013-8-9,69.6,58.3,47.4,56.3,52.8,46.9,99,83,56,30.14,30.00,2,0,8,0.00
2013-8-10,76.8,62.7,52.4,59.7,55.6,51.4,97,80,47,30.19,30.07,1,0,4,0.00
2013-8-11,77.8,63.0,48.9,63.5,56.4,48.4,99,82,53,30.09,30.00,1,0,5,0.00
2013-8-12,77.6,61.5,50.0,67.1,55.1,48.6,99,82,47,30.12,30.02,3,0,7,0.18
2013-8-13,73.8,59.0,43.7,57.1,49.9,43.2,99,76,41,30.22,30.12,3,0,4,0.00
2013-8-14,76.3,60.4,44.8,61.3,52.8,44.0,99,80,43,30.21,30.08,1,0,3,0.00
2013-8-15,81.1,63.1,45.9,64.1,54.6,45.4,99,78,42,30.12,30.06,2,0,4,0.00
2013-8-16,81.1,66.2,51.9,64.3,57.7,51.3,99,77,46,30.15,30.10,2,0,8,0.00
2013-8-17,81.3,68.0,56.3,64.9,59.8,55.1,98,77,51,30.13,30.02,2,0,7,0.00
2013-8-18,82.6,70.5,60.9,66.4,61.5,57.9,91,74,55,30.05,29.90,2,0,9,0.00
2013-8-19,88.2,74.5,65.1,73.2,67.6,61.4,95,80,58,29.92,29.81,2,0,6,0.01
2013-8-20,91.9,77.8,66.8,77.3,71.6,66.2,99,83,56,29.84,29.74,1,0,5,0.00
2013-8-21,83.8,74.4,60.3,73.3,65.3,56.1,99,77,40,30.02,29.73,3,1,9,0.00
2013-8-22,80.0,68.0,51.8,58.9,53.1,47.7,95,62,33,30.15,30.02,2,0,5,0.00
2013-8-23,85.3,66.4,46.7,66.4,56.5,46.2,99,74,40,30.15,29.98,1,0,4,0.00
2013-8-24,88.8,77.7,67.6,73.2,69.7,66.1,96,78,57,30.00,29.80,3,1,10,0.00
2013-8-25,93.4,81.4,73.5,79.1,74.9,72.0,96,82,56,29.88,29.82,2,0,7,0.03
2013-8-26,93.8,79.8,71.9,81.3,75.6,70.8,99,88,63,29.90,29.76,4,0,6,0.08
2013-8-27,87.0,75.1,67.4,74.3,71.0,66.8,99,88,63,29.91,29.76,2,0,5,0.00
2013-8-28,85.8,73.2,65.0,77.1,70.4,64.7,99,92,69,30.00,29.90,1,0,2,0.00
2013-8-29,88.4,75.9,68.0,78.8,72.6,67.7,99,90,67,29.98,29.76,2,0,6,0.08
2013-8-30,79.3,70.0,62.1,70.8,65.7,61.4,98,87,66,29.96,29.82,3,1,8,0.00
2013-8-31,89.3,71.2,62.6,72.2,65.6,61.3,99,84,50,29.89,29.63,3,0,5,0.06
2013-9-1,67.8,61.7,50.9,62.9,56.8,48.5,96,84,67,30.02,29.71,3,1,10,0.01
2013-9-2,69.8,57.5,46.9,55.9,51.4,46.1,97,82,53,30.12,30.01,2,0,7,0.00
2013-9-3,81.4,60.5,42.3,63.7,54.6,42.0,100,84,50,30.08,29.96,1,0,6,0.00
2013-9-4,63.7,61.9,59.1,60.8,59.8,58.2,98,93,88,30.09,29.99,0,0,3,0.00
2013-9-6,91.5,77.3,66.4,71.9,68.5,65.2,96,77,48,30.03,29.80,2,0,8,0.00
2013-9-7,84.3,73.7,64.2,73.5,67.9,60.8,100,83,61,30.06,29.84,3,0,7,0.00
2013-9-8,67.0,60.9,57.8,60.7,56.3,51.6,96,86,64,30.07,29.88,2,0,8,0.71
2013-9-9,71.4,66.1,59.8,70.3,65.2,58.6,99,97,95,29.89,29.64,2,0,12,0.71
2013-9-10,79.5,66.6,57.9,68.7,63.0,56.9,99,89,59,29.94,29.73,3,0,8,0.01
2013-9-11,80.5,65.9,54.5,62.8,56.9,50.0,99,76,43,30.11,29.92,3,0,9,0.00
2013-9-12,68.8,56.2,44.7,56.5,49.2,43.7,99,81,47,30.26,30.11,4,1,11,0.00
2013-9-13,70.3,57.9,41.4,52.6,48.7,40.9,98,74,48,30.27,30.05,2,0,7,0.00
2013-9-14,67.2,56.7,51.5,57.9,52.5,47.6,98,86,67,30.05,29.89,2,0,8,1.22
2013-9-15,59.9,53.8,40.2,56.3,50.7,39.3,98,90,67,30.35,29.93,4,1,12,0.01
2013-9-16,65.5,48.3,33.3,49.2,41.6,33.0,100,80,47,30.44,30.24,2,0,6,0.00
2013-9-17,64.2,54.5,43.9,57.1,50.6,40.8,99,87,75,30.24,29.92,2,1,8,0.00
2013-9-18,69.8,63.3,56.7,67.7,62.4,55.3,99,97,92,29.92,29.64,1,0,6,0.00
2013-9-19,68.5,63.0,54.2,67.9,60.4,-99.9,100,96,92,29.78,29.60,2,-15,8,0.20
2013-9-20,60.6,54.2,47.0,55.8,50.5,44.9,99,88,67,29.94,29.75,3,1,10,0.06
2013-9-21,60.8,48.8,40.3,49.6,44.4,39.5,98,86,62,30.02,29.93,2,0,9,0.00
2013-9-22,69.7,55.3,38.4,56.3,49.5,38.1,100,82,60,29.98,29.82,2,1,10,0.00
2013-9-23,71.0,61.8,54.2,56.3,54.1,51.3,90,77,57,29.88,29.81,3,1,11,0.00
2013-9-24,72.7,59.0,49.8,60.4,53.8,49.1,98,84,61,29.95,29.88,1,0,4,0.00
2013-9-25,72.6,57.6,43.6,60.0,52.1,43.3,100,84,55,29.97,29.85,2,0,5,0.00
2013-9-26,76.1,64.7,55.1,62.4,57.5,51.2,89,78,59,29.90,29.76,3,1,12,0.00
2013-9-27,73.4,67.9,63.2,66.8,63.5,60.7,97,86,73,29.84,29.70,2,1,10,0.10
2013-9-28,72.4,58.0,43.4,63.4,54.0,42.1,98,87,73,29.86,29.51,4,1,15,0.49
2013-9-29,73.5,55.4,39.2,54.7,47.7,38.5,99,79,42,29.91,29.67,2,0,8,0.01
2013-9-30,73.9,62.1,54.4,57.2,52.9,47.9,94,73,54,29.67,29.53,2,0,8,0.00
2013-10-1,68.8,58.9,45.5,56.0,46.1,36.7,92,66,32,29.96,29.50,5,1,13,0.00
2013-10-2,70.7,51.3,38.4,53.4,46.2,37.1,98,85,41,30.03,29.93,2,0,6,0.75
2013-10-3,55.9,52.6,50.0,53.2,51.0,49.0,97,94,86,30.05,29.93,3,1,8,0.46
2013-10-4,56.3,52.5,50.4,50.7,49.2,46.6,97,89,79,30.10,29.94,6,3,18,0.04
2013-10-5,51.3,49.9,48.2,50.8,49.2,46.8,98,97,86,29.95,29.77,6,2,19,0.85
2013-10-6,54.8,47.1,41.8,48.6,45.1,40.9,98,93,71,29.85,29.73,5,1,11,0.05
2013-10-7,64.8,48.9,36.7,47.8,42.4,36.2,99,81,43,29.98,29.83,2,0,8,0.00
2013-10-8,76.3,59.1,46.1,53.5,47.8,42.7,91,69,39,29.93,29.69,3,1,9,0.00
2013-10-9,72.1,59.7,51.6,55.4,51.2,48.1,97,75,54,30.00,29.81,2,0,6,0.00
2013-10-10,73.7,61.2,51.1,58.1,52.7,48.2,96,75,56,29.99,29.82,3,0,11,0.00
2013-10-11,71.1,60.2,54.7,59.6,54.6,51.1,96,82,57,29.85,29.51,5,1,10,0.62
2013-10-12,55.1,48.0,39.7,51.2,44.9,38.9,98,89,82,30.18,29.57,4,1,16,0.02
2013-10-13,57.7,42.7,31.6,43.9,36.6,31.1,99,82,43,30.44,30.17,3,0,6,0.01
2013-10-14,48.0,43.5,35.8,43.2,40.4,34.8,98,89,69,30.45,30.06,4,1,11,0.42
2013-10-15,46.7,44.5,42.7,45.0,43.3,41.4,97,95,92,30.06,29.81,7,4,17,0.71
2013-10-16,55.6,42.2,31.2,41.6,36.8,30.7,99,83,52,29.98,29.86,3,0,8,0.00
2013-10-17,50.8,41.7,32.9,45.3,39.8,32.1,98,93,78,29.93,29.82,4,1,12,0.18
2013-10-18,50.7,38.6,29.8,39.1,33.7,29.3,99,84,50,29.99,29.82,3,0,9,0.00
2013-10-19,45.2,35.8,27.3,35.7,31.0,-99.9,98,86,62,29.83,29.71,4,-11,7,0.00
2013-10-20,36.3,32.7,26.8,35.3,31.2,24.7,98,94,77,29.94,29.72,4,1,11,0.05
2013-10-21,35.8,32.0,27.6,29.2,25.7,20.9,90,78,65,30.00,29.93,6,2,15,0.01
2013-10-22,39.5,33.8,28.4,33.3,30.5,26.0,93,87,76,30.08,29.99,3,0,9,0.03
2013-10-23,33.2,31.2,30.0,29.4,23.6,20.8,94,74,65,30.17,30.03,5,1,11,0.00
2013-10-24,40.4,34.3,28.3,31.8,28.4,23.1,95,79,61,30.33,30.17,3,1,10,0.01
2013-10-25,55.3,40.1,25.3,41.9,32.9,23.8,97,77,58,30.33,29.76,5,1,12,0.00
2013-10-26,45.7,37.6,29.5,33.1,29.7,25.6,86,73,59,30.13,29.84,5,2,15,0.00
2013-10-27,51.6,39.2,28.9,34.6,30.5,25.5,90,72,50,30.28,29.80,6,2,13,0.00
2013-10-28,38.2,31.7,26.2,27.7,22.3,19.6,77,69,53,30.55,30.28,5,2,13,0.00
2013-10-29,34.4,32.1,28.6,33.4,29.3,23.6,96,90,78,30.51,30.17,2,0,7,0.06
2013-10-30,41.9,37.6,34.4,41.3,36.8,33.4,98,97,96,30.17,29.72,2,0,4,0.09
2013-10-31,41.6,39.2,38.1,41.1,38.6,37.3,99,98,97,29.72,29.43,2,0,5,0.09
2013-11-1,44.1,37.7,31.2,37.5,34.4,30.1,99,89,73,29.91,29.45,4,1,10,0.01
2013-11-2,46.1,34.2,24.1,36.3,30.4,23.3,98,87,65,30.10,29.91,1,0,4,0.01
2013-11-3,51.7,43.0,30.4,37.4,34.7,29.9,98,74,54,30.11,29.83,6,2,16,0.00
2013-11-4,46.7,43.4,32.4,41.0,36.9,29.3,92,78,67,29.98,29.77,4,2,14,0.05
2013-11-5,34.0,31.7,30.6,26.7,25.9,25.2,85,79,71,30.20,30.14,0,0,3,0.00
2013-11-6,38.3,28.9,20.9,25.9,21.5,17.7,92,75,48,30.21,30.12,4,1,12,0.00
2013-11-7,37.7,26.5,18.7,25.6,21.6,17.3,95,83,57,30.27,30.21,3,0,8,0.00
2013-11-8,39.2,31.2,17.8,32.4,26.7,16.3,97,84,66,30.22,29.63,4,1,11,0.03
2013-11-9,37.8,35.5,33.0,34.5,31.7,28.6,97,86,74,30.26,29.63,6,3,16,0.00
2013-11-10,40.3,33.8,23.8,29.9,26.6,13.4,84,75,62,30.33,30.15,6,2,17,0.00
2013-11-11,23.7,16.3,9.6,15.8,9.3,4.8,81,74,65,30.83,30.25,6,3,14,0.00
2013-11-12,30.5,18.8,6.0,15.7,8.5,3.6,91,67,39,30.85,30.41,4,1,8,0.00
2013-11-13,50.4,34.4,21.5,35.0,27.2,15.7,92,76,54,30.40,29.87,5,1,13,0.00
2013-11-14,49.1,38.1,32.2,37.3,33.4,30.0,94,84,62,29.87,29.75,2,0,6,0.01
2013-11-15,49.4,37.8,25.3,41.4,34.1,24.6,99,87,69,29.85,29.57,3,0,8,0.00
2013-11-16,42.6,40.9,37.7,41.6,39.1,35.6,98,94,84,29.57,29.28,3,1,10,0.09
2013-11-17,41.8,35.4,25.3,41.5,33.0,20.6,99,91,82,29.86,29.27,7,3,18,0.00
2013-11-18,27.4,22.3,14.5,20.9,18.3,12.8,94,85,74,30.30,29.86,6,2,17,0.00
2013-11-19,43.8,31.6,15.0,33.6,25.4,13.5,96,79,64,30.30,29.82,6,2,16,0.00
2013-11-20,43.7,40.0,35.0,33.5,32.5,31.3,88,75,66,30.05,29.81,5,2,12,0.00
2013-11-21,35.2,23.9,15.1,32.6,18.9,9.7,93,81,71,30.63,30.05,6,3,14,0.00
2013-11-22,24.2,12.7,4.3,16.7,6.7,0.3,91,77,60,30.80,30.54,6,2,14,0.00
2013-11-23,13.0,4.6,-0.9,2.0,-1.2,-4.0,89,77,56,30.95,30.78,4,1,9,0.00
2013-11-24,36.4,21.8,-1.0,27.0,13.3,-3.8,91,71,50,30.78,29.86,6,2,18,0.00
2013-11-25,36.4,31.6,23.5,28.3,24.8,17.4,84,76,62,30.12,29.85,6,2,16,0.00
2013-11-26,23.6,14.4,4.3,19.3,7.7,1.8,90,75,62,30.49,30.11,6,3,17,0.00
2013-11-27,19.6,11.7,0.3,11.8,6.7,-2.4,94,81,69,30.49,30.16,2,0,6,0.00
2013-11-28,21.5,16.1,2.5,14.5,10.2,0.2,91,78,64,30.58,30.17,4,1,11,0.00
2013-11-29,27.3,18.8,1.1,21.3,13.4,-1.4,93,80,67,30.59,30.13,4,1,11,0.00
2013-11-30,34.5,26.2,19.6,25.4,21.6,17.8,94,83,67,30.26,30.08,3,1,8,0.00
2013-12-1,24.7,22.6,21.5,22.0,20.6,19.4,94,92,87,30.26,29.98,1,0,3,0.00
2013-12-2,31.5,28.0,23.6,31.0,26.9,22.1,98,96,94,29.99,29.66,2,0,8,0.00
2013-12-3,32.0,30.7,30.2,31.4,30.1,29.5,98,97,97,29.81,29.67,0,0,0,0.00
2013-12-4,23.2,21.9,20.3,21.9,20.5,18.8,95,94,93,29.74,29.59,0,0,0,0.00
2013-12-5,0.3,-4.7,-8.0,-4.2,-8.2,-11.3,87,85,81,30.39,30.19,0,0,0,0.00
2013-12-6,0.2,-9.7,-19.6,-5.7,-13.6,-23.4,87,83,75,30.75,30.39,0,0,0,0.00
2013-12-7,-3.2,-15.3,-23.1,-9.5,-19.5,-27.1,86,81,72,30.80,30.69,0,0,0,0.00
2013-12-8,9.2,-4.9,-23.2,4.5,-8.4,-27.2,88,85,79,30.70,30.15,0,0,0,0.00
2013-12-9,-2.7,-6.6,-12.3,-5.3,-10.4,-16.9,91,83,73,30.15,29.94,0,0,0,0.00
2013-12-10,4.6,-5.7,-13.5,0.0,-9.6,-16.7,88,83,74,30.43,29.92,0,0,0,0.00
2013-12-11,-2.5,-9.1,-19.0,-6.8,-13.7,-22.6,85,80,70,30.65,30.38,0,0,0,0.00
2013-12-12,14.3,3.9,-11.2,8.1,-0.4,-14.6,90,82,70,30.40,30.27,0,0,0,0.00
2013-12-13,9.5,2.8,-0.4,6.2,-2.5,-6.9,87,78,70,30.47,30.30,0,0,0,0.00
2013-12-14,8.8,1.0,-8.0,2.4,-3.3,-11.5,86,82,72,30.47,30.20,0,0,0,0.00
2013-12-15,-2.6,-7.2,-15.2,-8.3,-12.6,-18.7,85,77,65,30.31,30.22,0,0,0,0.00
2013-12-16,27.8,9.1,-2.5,26.8,5.3,-8.9,97,84,73,30.23,29.90,0,0,0,0.00
2013-12-17,29.8,15.4,-4.8,28.0,10.7,-7.4,96,82,65,30.15,29.90,0,0,0,0.00
2013-12-18,28.8,15.5,0.4,20.6,11.7,-2.2,96,85,69,30.11,29.69,0,0,0,0.00
2013-12-19,18.5,7.9,1.2,15.9,3.4,-2.5,90,82,72,30.26,29.95,0,0,0,0.00
2013-12-20,13.0,1.5,-10.4,9.8,-1.2,-13.4,90,88,85,30.22,29.97,0,0,0,0.00
2013-12-21,13.1,8.1,-0.8,8.8,5.1,-3.5,92,87,81,30.18,29.97,0,0,0,0.00
2013-12-22,10.4,5.7,-2.2,7.3,2.3,-6.2,89,85,78,30.40,30.12,0,0,0,0.00
2013-12-23,-1.2,-10.5,-24.9,-6.2,-15.3,-29.6,84,79,65,30.65,30.39,0,0,0,0.00
2013-12-24,7.0,-7.2,-27.3,4.2,-11.7,-31.7,89,80,59,30.62,30.23,0,0,0,0.00
2013-12-25,22.0,12.3,4.1,17.4,8.6,1.0,92,85,68,30.23,30.14,0,0,0,0.00
2013-12-26,20.6,15.6,9.2,17.3,11.9,6.5,91,85,73,30.23,30.14,0,0,0,0.00
2013-12-27,38.8,28.8,19.6,32.1,25.9,17.2,96,89,75,30.21,29.88,3,0,8,0.26
2013-12-28,31.9,25.4,3.6,30.9,23.3,-1.4,97,92,78,30.24,29.75,8,2,17,0.00
2013-12-29,3.4,-11.1,-24.9,-1.4,-17.8,-29.0,83,72,52,30.47,30.24,6,2,17,0.00
2013-12-30,1.2,-14.5,-27.4,-6.1,-18.5,-31.5,86,81,69,30.40,30.35,1,0,3,0.00
2013-12-31,-7.2,-15.8,-22.7,-13.7,-20.4,-26.4,86,80,67,30.61,30.35,3,0,7,0.00
2014-1-1,-3.8,-10.4,-19.0,-12.7,-16.6,-23.1,84,74,63,30.69,30.60,1,0,4,0.00
2014-1-2,-1.4,-16.5,-28.3,-11.3,-21.5,-32.5,86,78,60,30.70,30.45,1,0,3,0.00